Time,TemperatureF,DewpointF,PressureIn,WindDirection,WindDirectionDegrees,WindSpeedMPH,WindSpeedGustMPH,Humidity,HourlyPrecipIn,Conditions,Clouds,dailyrainin,SoftwareType,DateUTC
2013-02-08 01:03:00,28.2,26.4,29.51,West,273,11.0,27.0,93,0.00,,SKC,0.00,VWS V12.07,2013-02-08 09:03:00,
2013-02-08 02:02:00,27.2,25.5,29.50,SW,219,21.0,25.0,93,0.00,,SKC,0.00,VWS V12.07,2013-02-08 10:02:00,
2013-02-08 03:03:00,27.8,26.0,29.48,West,261,24.0,31.0,93,0.00,,SKC,0.00,VWS V12.07,2013-02-08 11:03:00,
2013-02-08 04:03:00,25.7,23.7,29.47,SW,219,10.0,27.0,92,0.00,,SKC,0.00,VWS V12.07,2013-02-08 12:03:00,
2013-02-08 05:03:00,26.0,24.0,29.46,SW,234,20.0,26.0,92,0.00,,SKC,0.00,VWS V12.07,2013-02-08 13:03:00,
2013-02-08 06:01:00,25.1,23.1,29.46,South,169,16.0,30.0,92,0.00,,SKC,0.00,VWS V12.07,2013-02-08 14:01:00,
2013-02-08 07:03:00,24.1,21.9,29.46,SSW,209,14.0,24.0,91,0.00,,SKC,0.00,VWS V12.07,2013-02-08 15:03:00,
2013-02-08 09:03:00,25.3,23.3,29.47,WSW,243,16.0,22.0,92,0.00,,SKC,0.00,VWS V12.07,2013-02-08 17:03:00,
2013-02-08 10:03:00,25.8,23.8,29.48,South,173,5.0,15.0,92,0.00,,SKC,0.00,VWS V12.07,2013-02-08 18:03:00,
2013-02-08 11:03:00,26.7,25.0,29.47,SSW,200,4.0,17.0,93,0.00,,SKC,0.00,VWS V12.07,2013-02-08 19:03:00,
2013-02-08 12:03:00,26.7,25.0,29.44,SW,217,6.0,21.0,93,0.00,,SKC,0.00,VWS V12.07,2013-02-08 20:03:00,
2013-02-08 13:03:00,25.3,23.3,29.42,SSW,196,21.0,21.0,92,0.00,,SKC,0.00,VWS V12.07,2013-02-08 21:03:00,
2013-02-08 14:03:00,26.0,24.0,29.40,SW,214,13.0,23.0,92,0.00,,SKC,0.00,VWS V12.07,2013-02-08 22:03:00,
2013-02-08 15:03:00,24.8,22.8,29.40,SW,217,12.0,19.0,92,0.00,,SKC,0.00,VWS V12.07,2013-02-08 23:03:00,
2013-02-08 16:03:00,25.3,23.3,29.38,SW,222,21.0,21.0,92,0.00,,SKC,0.00,VWS V12.07,2013-02-09 00:03:00,
2013-02-08 17:03:00,24.1,22.1,29.37,SW,219,9.0,19.0,92,0.00,,SKC,0.00,VWS V12.07,2013-02-09 01:03:00,
2013-02-08 18:03:00,24.2,22.2,29.38,SW,219,17.0,21.0,92,0.00,,SKC,0.00,VWS V12.07,2013-02-09 02:03:00,
2013-02-08 19:03:00,24.1,21.9,29.37,SW,219,13.0,13.0,91,0.00,,SKC,0.00,VWS V12.07,2013-02-09 03:03:00,
2013-02-08 20:02:00,23.0,20.8,29.37,SW,234,14.0,17.0,91,0.00,,SKC,0.00,VWS V12.07,2013-02-09 04:02:00,
2013-02-08 21:03:00,22.7,20.5,29.38,SW,227,14.0,17.0,91,0.00,,SKC,0.00,VWS V12.07,2013-02-09 05:03:00,
2013-02-08 22:03:00,22.7,20.2,29.39,SW,236,18.0,19.0,90,0.00,,SKC,0.00,VWS V12.07,2013-02-09 06:03:00,
2013-02-08 23:03:00,22.5,20.0,29.39,SW,234,9.0,18.0,90,0.00,,SKC,0.00,VWS V12.07,2013-02-09 07:03:00,